Time;durP1;ratioP1;P1;durP2;ratioP2;P2;SDS_P1;SDS_P2;PMS_P1;PMS_P2;Temp;Humidity;BMP_temperature;BMP_pressure;BME280_temperature;BME280_humidity;BME280_pressure;Samples;Min_cycle;Max_cycle;Signal;HPM_P1;HPM_P2
2023/09/12 00:01:42;;;;;;;19.73;9.73;;;;;;;;;;4988722;28;20026;-63
2023/09/12 00:04:11;;;;;;;18.60;7.90;;;;;;;;;;4990157;28;20034;-63
2023/09/12 00:06:37;;;;;;;15.43;8.38;;;;;;;;;;4990811;28;20049;-62
2023/09/12 00:09:05;;;;;;;14.13;8.40;;;;;;;;;;4988058;28;20637;-62
2023/09/12 00:11:31;;;;;;;12.90;7.88;;;;;;;;;;4988506;28;20037;-62
2023/09/12 00:13:57;;;;;;;19.38;8.45;;;;;;;;;;4989137;28;20512;-62
2023/09/12 00:16:23;;;;;;;18.63;7.95;;;;;;;;;;4983076;28;20057;-64
2023/09/12 00:18:49;;;;;;;15.77;8.85;;;;;;;;;;4989883;28;20030;-62
2023/09/12 00:21:15;;;;;;;14.98;8.23;;;;;;;;;;4988545;28;20018;-63
2023/09/12 00:23:41;;;;;;;15.93;8.15;;;;;;;;;;4987576;28;20027;-63
2023/09/12 00:26:06;;;;;;;15.55;9.55;;;;;;;;;;4989188;28;20122;-62
2023/09/12 00:28:34;;;;;;;17.73;9.73;;;;;;;;;;4989116;28;20110;-62
2023/09/12 00:31:00;;;;;;;23.45;11.05;;;;;;;;;;4989007;28;20030;-62
2023/09/12 00:33:26;;;;;;;22.23;10.80;;;;;;;;;;4988776;28;20125;-63
2023/09/12 00:35:51;;;;;;;18.40;10.25;;;;;;;;;;4989804;28;20089;-63
2023/09/12 00:38:17;;;;;;;17.95;10.25;;;;;;;;;;4985644;28;20113;-64
2023/09/12 00:40:43;;;;;;;25.38;11.00;;;;;;;;;;4983680;28;20054;-62
2023/09/12 00:43:10;;;;;;;18.42;11.15;;;;;;;;;;4988654;28;20027;-64
2023/09/12 00:45:37;;;;;;;22.30;11.43;;;;;;;;;;4987473;28;20069;-63
2023/09/12 00:48:04;;;;;;;18.55;10.52;;;;;;;;;;4988159;28;20608;-62
2023/09/12 00:50:31;;;;;;;18.73;10.23;;;;;;;;;;4988132;28;20034;-63
2023/09/12 00:52:57;;;;;;;13.93;9.63;;;;;;;;;;4982303;28;20303;-63
2023/09/12 00:55:23;;;;;;;18.80;9.95;;;;;;;;;;4986775;28;20019;-63
2023/09/12 00:57:49;;;;;;;18.38;9.45;;;;;;;;;;4986831;28;20041;-63
2023/09/12 01:00:15;;;;;;;19.13;11.00;;;;;;;;;;4988098;28;20500;-63
2023/09/12 01:02:42;;;;;;;19.85;12.23;;;;;;;;;;4987624;28;20088;-63
2023/09/12 01:05:08;;;;;;;21.08;12.02;;;;;;;;;;4984737;28;20528;-63
2023/09/12 01:07:35;;;;;;;20.50;12.18;;;;;;;;;;4988041;28;20045;-63
2023/09/12 01:10:00;;;;;;;23.77;12.77;;;29.90;99.90;;;;;;4988319;28;20026;-64
2023/09/12 01:12:26;;;;;;;22.20;13.52;;;20.80;99.90;;;;;;4986667;28;20070;-63
2023/09/12 01:14:52;;;;;;;28.35;12.38;;;;;;;;;;4990640;28;20029;-62
2023/09/12 01:17:18;;;;;;;22.52;13.27;;;;;;;;;;4989255;28;20030;-63
2023/09/12 01:19:44;;;;;;;22.13;11.75;;;;;;;;;;4986932;28;20125;-63
2023/09/12 01:22:16;;;;;;;20.02;12.02;;;;;;;;;;4989129;28;20205;-64
2023/09/12 01:24:49;;;;;;;19.00;11.82;;;;;;;;;;4988023;28;20042;-63
2023/09/12 01:27:19;;;;;;;25.52;13.13;;;;;;;;;;4985409;28;20026;-63
2023/09/12 01:29:46;;;;;;;23.88;13.57;;;;;;;;;;4987147;28;20038;-63
2023/09/12 01:32:13;;;;;;;21.40;12.00;;;;;;;;;;4986630;28;20030;-63
2023/09/12 01:34:39;;;;;;;21.05;13.52;;;;;;;;;;4984959;28;20061;-62
2023/09/12 01:37:05;;;;;;;25.73;14.52;;;;;;;;;;4992380;28;20035;-62
2023/09/12 01:39:31;;;;;;;32.42;15.02;;;;;;;;;;4991930;28;20551;-63
2023/09/12 01:41:59;;;;;;;29.33;14.52;;;;;;;;;;5006055;28;20062;-63
2023/09/12 01:44:25;;;;;;;26.55;13.93;;;;;;;;;;4992052;28;20427;-62
2023/09/12 01:46:53;;;;;;;24.52;14.02;;;;;;;;;;4987336;28;20084;-63
2023/09/12 01:49:21;;;;;;;26.05;15.73;;;;;;;;;;4992207;28;20038;-62
2023/09/12 01:51:47;;;;;;;27.40;15.68;;;;;;;;;;4991086;28;20469;-63
2023/09/12 01:54:14;;;;;;;29.85;15.88;;;;;;;;;;4993058;28;20200;-63
2023/09/12 01:56:41;;;;;;;34.50;16.17;;;;;;;;;;4992533;28;20437;-62
2023/09/12 01:59:07;;;;;;;25.23;16.55;;;;;;;;;;4991193;28;20242;-63
2023/09/12 02:01:33;;;;;;;32.65;16.48;;;;;;;;;;4991030;28;20124;-64
2023/09/12 02:03:59;;;;;;;28.38;16.92;;;;;;;;;;4988845;28;20027;-63
2023/09/12 02:06:24;;;;;;;31.80;16.77;;;;;;;;;;4988792;28;20141;-62
2023/09/12 02:08:50;;;;;;;34.97;16.92;;;;;;;;;;4989701;28;20030;-63
2023/09/12 02:11:16;;;;;;;32.83;16.95;;;;;;;;;;4988570;28;20133;-61
2023/09/12 02:13:42;;;;;;;28.77;17.70;;;;;;;;;;4992175;28;20034;-62
2023/09/12 02:16:08;;;;;;;30.58;17.42;;;;;;;;;;4990514;28;20038;-63
2023/09/12 02:18:34;;;;;;;31.60;17.33;;;;;;;;;;4992649;28;20034;-63
2023/09/12 02:21:00;;;;;;;30.77;17.70;;;;;;;;;;4990039;28;20110;-62
2023/09/12 02:23:26;;;;;;;31.67;17.17;;;;;;;;;;4987539;28;20026;-63
2023/09/12 02:25:52;;;;;;;33.60;18.70;;;;;;;;;;4992771;28;20042;-63
2023/09/12 02:28:18;;;;;;;30.98;18.30;;;;;;;;;;4992191;28;20019;-63
2023/09/12 02:30:44;;;;;;;33.45;17.83;;;;;;;;;;4987259;28;20078;-63
2023/09/12 02:33:10;;;;;;;31.67;17.98;;;;;;;;;;4991878;28;20022;-62
2023/09/12 02:35:36;;;;;;;37.80;18.85;;;;;;;;;;4989687;28;20061;-63
2023/09/12 02:38:02;;;;;;;30.52;19.00;;;;;;;;;;4983184;28;20034;-63
2023/09/12 02:40:28;;;;;;;37.75;21.10;;;;;;;;;;4990070;28;20117;-63
2023/09/12 02:42:54;;;;;;;42.92;21.90;;;;;;;;;;4990141;28;20129;-62
2023/09/12 02:45:19;;;;;;;34.78;21.10;;;;;;;;;;4988104;28;20064;-64
2023/09/12 02:47:46;;;;;;;41.92;22.23;;;;;;;;;;4986897;28;20026;-62
2023/09/12 02:50:12;;;;;;;42.63;22.00;;;;;;;;;;4989076;28;20493;-63
2023/09/12 02:52:38;;;;;;;41.67;22.10;;;;;;;;;;4989569;28;20042;-63
2023/09/12 02:55:04;;;;;;;36.47;20.05;;;;;;;;;;4991075;28;20496;-62
2023/09/12 02:57:30;;;;;;;47.25;22.67;;;;;;;;;;4984878;28;20036;-62
2023/09/12 02:59:56;;;;;;;37.30;21.02;;;;;;;;;;4987777;28;20105;-62
2023/09/12 03:02:22;;;;;;;44.50;22.38;;;;;;;;;;4989328;28;20023;-62
2023/09/12 03:04:48;;;;;;;36.85;20.85;;;;;;;;;;4990011;28;20029;-62
2023/09/12 03:07:14;;;;;;;31.05;17.90;;;;;;;;;;4988739;28;20073;-63
2023/09/12 03:09:39;;;;;;;37.53;20.00;;;;;;;;;;4986275;28;20038;-62
2023/09/12 03:12:05;;;;;;;37.13;19.88;;;;;;;;;;4991647;28;20030;-62
2023/09/12 03:14:31;;;;;;;30.42;16.63;;;;;;;;;;4989689;28;20030;-62
2023/09/12 03:16:57;;;;;;;35.38;16.92;;;;;;;;;;4984742;28;20092;-63
2023/09/12 03:19:23;;;;;;;27.95;17.85;;;;;;;;;;4988118;28;20093;-64
2023/09/12 03:21:49;;;;;;;27.77;16.95;;;;;;;;;;4988360;28;20030;-62
2023/09/12 03:24:18;;;;;;;33.35;18.52;;;;;;;;;;4991681;28;20023;-62
2023/09/12 03:26:44;;;;;;;27.95;17.15;;;;;;;;;;4988295;28;20039;-62
2023/09/12 03:29:10;;;;;;;33.30;16.95;;;;;;;;;;4988921;28;20038;-62
2023/09/12 03:31:36;;;;;;;38.38;18.73;;;;;;;;;;4987907;28;20092;-62
2023/09/12 03:34:02;;;;;;;26.83;16.15;;;;;;;;;;4989510;28;20030;-62
2023/09/12 03:36:28;;;;;;;29.88;17.75;;;;;;;;;;4989843;28;20045;-62
2023/09/12 03:38:54;;;;;;;29.50;17.67;;;;;;;;;;4993284;28;20037;-62
2023/09/12 03:41:24;;;;;;;28.35;16.40;;;;;;;;;;4991095;28;20396;-62
2023/09/12 03:43:50;;;;;;;28.35;17.25;;;;;;;;;;4995456;28;20023;-61
2023/09/12 03:46:16;;;;;;;31.75;16.63;;;;;;;;;;4989704;28;20026;-62
2023/09/12 03:48:42;;;;;;;29.42;16.98;;;;;;;;;;4989723;28;20032;-63
2023/09/12 03:51:08;;;;;;;32.80;15.35;;;;;;;;;;4990652;28;20049;-63
2023/09/12 03:53:34;;;;;;;26.88;15.95;;;;;;;;;;4996460;28;20099;-63
2023/09/12 03:56:00;;;;;;;27.67;16.40;;;;;;;;;;4993277;28;20088;-63
2023/09/12 03:58:26;;;;;;;29.20;15.38;;;;;;;;;;4983752;28;20038;-62
2023/09/12 04:00:52;;;;;;;28.40;14.40;;;;;;;;;;4990010;28;20018;-62
2023/09/12 04:03:18;;;;;;;24.48;14.05;;;;;;;;;;4988503;28;20499;-62
2023/09/12 04:05:46;;;;;;;24.83;15.02;;;;;;;;;;4990409;28;20572;-63
2023/09/12 04:08:12;;;;;;;23.15;13.15;;;;;;;;;;4989922;28;20081;-62
2023/09/12 04:10:38;;;;;;;22.50;13.48;;;;;;;;;;4991338;28;20032;-62
2023/09/12 04:13:04;;;;;;;18.92;12.40;;;;;;;;;;4990418;28;20105;-62
2023/09/12 04:15:30;;;;;;;21.10;11.93;;;;;;;;;;4991363;28;20029;-62
2023/09/12 04:17:56;;;;;;;20.48;11.38;;;;;;;;;;4983420;28;20038;-62
2023/09/12 04:20:22;;;;;;;24.70;11.95;;;;;;;;;;4986464;28;20035;-62
2023/09/12 04:22:48;;;;;;;17.92;12.02;;;;;;;;;;4986879;28;20057;-63
2023/09/12 04:25:14;;;;;;;19.92;12.15;;;;;;;;;;4986630;28;20493;-62
2023/09/12 04:27:41;;;;;;;19.75;11.65;;;;;;;;;;4987746;28;20022;-62
2023/09/12 04:30:08;;;;;;;15.80;10.45;;;;;;;;;;4988489;28;20042;-62
2023/09/12 04:32:34;;;;;;;16.40;10.73;;;;;;;;;;4985767;28;20109;-62
2023/09/12 04:35:00;;;;;;;20.30;11.48;;;;;;;;;;4984538;28;20552;-63
2023/09/12 04:37:26;;;;;;;18.98;10.95;;;;;;;;;;4987164;28;20039;-62
2023/09/12 04:39:52;;;;;;;17.17;9.73;;;;;;;;;;4986598;28;20026;-62
2023/09/12 04:42:17;;;;;;;18.70;9.32;;;;;;;;;;4987897;28;20037;-63
2023/09/12 04:44:43;;;;;;;16.83;9.82;;;;;;;;;;4985194;28;20031;-57
2023/09/12 04:47:09;;;;;;;17.90;10.45;;;;;;;;;;4984923;28;20038;-58
2023/09/12 04:49:35;;;;;;;16.98;9.85;;;;;;;;;;4985322;28;20120;-59
2023/09/12 04:52:01;;;;;;;19.10;9.77;;;;;;;;;;4983510;28;20500;-54
2023/09/12 04:54:27;;;;;;;16.73;10.20;;;;;;;;;;4984428;28;20044;-58
2023/09/12 04:56:53;;;;;;;19.13;10.55;;;;;;;;;;4983168;28;20026;-58
2023/09/12 04:59:20;;;;;;;18.13;10.68;;;;;;;;;;4986954;28;20654;-55
2023/09/12 05:01:46;;;;;;;18.90;11.20;;;;;;;;;;4981603;28;20027;-53
2023/09/12 05:04:11;;;;;;;15.82;10.73;;;;;;;;;;4985909;28;20115;-57
2023/09/12 05:06:38;;;;;;;20.48;11.60;;;;;;;;;;4986575;28;20393;-56
2023/09/12 05:09:05;;;;;;;21.25;12.32;;;;;;;;;;4985441;28;21663;-56
2023/09/12 05:11:31;;;;;;;18.63;11.25;;;;;;;;;;4988075;28;20045;-59
2023/09/12 05:13:57;;;;;;;22.83;12.98;;;;;;;;;;4987158;28;20038;-58
2023/09/12 05:16:23;;;;;;;20.10;11.55;;;;;;;;;;4985969;28;20054;-56
2023/09/12 05:18:49;;;;;;;17.65;10.85;;;;;;;;;;4982734;28;20026;-55
2023/09/12 05:21:16;;;;;;;22.60;11.07;;;;;;;;;;4989191;28;20030;-57
2023/09/12 05:23:42;;;;;;;19.25;11.25;;;;;;;;;;4988938;28;20027;-57
2023/09/12 05:26:08;;;;;;;24.15;10.80;;;;;;;;;;4988176;28;20090;-58
2023/09/12 05:28:34;;;;;;;21.02;10.80;;;;;;;;;;4987046;28;20041;-57
2023/09/12 05:31:00;;;;;;;19.77;10.85;;;;;;;;;;4984994;28;20034;-57
2023/09/12 05:33:26;;;;;;;17.92;10.60;;;;;;;;;;4983154;28;20042;-55
2023/09/12 05:35:52;;;;;;;19.02;9.23;;;;;;;;;;4985366;28;20102;-59
2023/09/12 05:38:18;;;;;;;19.48;9.93;;;;;;;;;;4989121;28;20026;-55
2023/09/12 05:40:44;;;;;;;16.83;10.50;;;;;;;;;;4983206;28;20026;-58
2023/09/12 05:43:10;;;;;;;14.43;9.85;;;;;;;;;;4990406;28;20034;-59
2023/09/12 05:45:36;;;;;;;16.70;9.95;;;;;;;;;;4990743;28;20050;-55
2023/09/12 05:48:03;;;;;;;20.48;9.38;;;;;;;;;;4984024;28;20034;-57
2023/09/12 05:50:29;;;;;;;17.92;10.18;;;;;;;;;;4983748;28;20098;-58
2023/09/12 05:52:55;;;;;;;15.35;9.68;;;;;;;;;;4986577;28;20034;-57
2023/09/12 05:55:20;;;;;;;20.05;9.30;;;;;;;;;;4983816;28;20039;-56
2023/09/12 05:57:47;;;;;;;13.07;8.77;;;;;;;;;;4982354;28;20141;-51
2023/09/12 06:00:15;;;;;;;15.93;8.57;;;;;;;;;;4986183;28;20030;-57
2023/09/12 06:02:42;;;;;;;17.15;8.77;;;;;;;;;;4985169;28;20030;-59
2023/09/12 06:05:08;;;;;;;16.10;8.68;;;;;;;;;;4985358;28;20070;-56
2023/09/12 06:07:34;;;;;;;17.27;9.00;;;;;;;;;;4987310;28;20062;-59
2023/09/12 06:10:00;;;;;;;11.90;8.77;;;;;;;;;;4987856;28;20040;-57
2023/09/12 06:12:26;;;;;;;14.75;9.57;;;;;;;;;;4986929;28;20381;-57
2023/09/12 06:14:55;;;;;;;15.07;8.63;;;;;;;;;;4987766;28;20039;-57
2023/09/12 06:17:21;;;;;;;15.23;9.32;;;;;;;;;;4987171;28;20050;-60
2023/09/12 06:19:49;;;;;;;17.20;8.35;;;;;;;;;;4988647;28;20065;-59
2023/09/12 06:22:17;;;;;;;14.00;7.43;;;;;;;;;;4989686;28;20194;-59
2023/09/12 06:24:43;;;;;;;13.02;8.23;;;;;;;;;;4985414;28;20025;-57
2023/09/12 06:27:09;;;;;;;15.65;7.72;;;;;;;;;;4988789;28;20145;-56
2023/09/12 06:29:35;;;;;;;12.60;7.90;;;;;;;;;;4989090;28;20238;-57
2023/09/12 06:32:02;;;;;;;10.38;7.50;;;;;;;;;;4989389;28;20061;-58
2023/09/12 06:34:28;;;;;;;12.88;7.72;;;;;;;;;;4988924;28;20377;-59
2023/09/12 06:36:54;;;;;;;17.33;10.82;;;;;;;;;;4987930;28;20122;-60
2023/09/12 06:39:20;;;;;;;23.67;12.90;;;;;;;;;;4985757;28;20034;-58
2023/09/12 06:41:46;;;;;;;25.55;14.48;;;;;;;;;;4988933;28;20022;-60
2023/09/12 06:44:12;;;;;;;27.35;15.15;;;;;;;;;;4985716;28;20101;-59
2023/09/12 06:46:38;;;;;;;30.75;16.77;;;;;;;;;;4988820;28;20472;-58
2023/09/12 06:49:04;;;;;;;30.15;17.23;;;;;;;;;;4988253;28;20034;-56
2023/09/12 06:51:30;;;;;;;38.55;19.77;;;;;;;;;;4989279;28;20042;-56
2023/09/12 06:53:56;;;;;;;40.67;20.25;;;;;;;;;;4991229;28;20034;-50
2023/09/12 06:56:22;;;;;;;31.08;19.58;;;;;;;;;;4988397;28;20101;-52
2023/09/12 06:58:48;;;;;;;32.17;18.40;;;;;;;;;;4988134;28;20065;-51
2023/09/12 07:01:14;;;;;;;35.15;18.23;;;;;;;;;;4986057;28;20145;-55
2023/09/12 07:03:40;;;;;;;37.10;18.85;;;;;;;;;;4990700;28;20057;-54
2023/09/12 07:06:06;;;;;;;29.88;16.00;;;;;;;;;;4987764;28;20060;-55
2023/09/12 07:08:32;;;;;;;25.88;15.55;;;;;;;;;;4985445;28;20034;-56
2023/09/12 07:11:05;;;;;;;31.90;16.70;;;;;;;;;;4989856;28;20101;-54
2023/09/12 07:13:31;;;;;;;20.73;14.02;;;;;;;;;;4991458;28;20018;-55
2023/09/12 07:15:57;;;;;;;26.67;14.75;;;;;;;;;;4986794;28;20038;-57
2023/09/12 07:18:23;;;;;;;22.70;14.00;;;;;;;;;;4988189;28;20023;-57
2023/09/12 07:20:59;;;;;;;26.50;14.65;;;;;;;;;;4987274;28;20471;-53
2023/09/12 07:23:25;;;;;;;25.25;13.57;;;;;;;;;;4988875;28;20556;-52
2023/09/12 07:25:52;;;;;;;25.00;12.90;;;;;;;;;;4988594;28;20121;-51
2023/09/12 07:28:19;;;;;;;22.35;14.23;;;;;;;;;;4987680;28;20069;-57
2023/09/12 07:30:48;;;;;;;24.67;13.48;;;;;;;;;;4986185;28;20044;-55
2023/09/12 07:33:14;;;;;;;25.73;13.90;;;;;;;;;;4983899;28;20037;-54
2023/09/12 07:35:40;;;;;;;22.42;12.25;;;;;;;;;;4986026;28;20030;-54
2023/09/12 07:38:06;;;;;;;28.08;13.75;;;;;;;;;;4986790;28;20042;-54
2023/09/12 07:40:32;;;;;;;25.90;12.18;;;;;;;;;;4987265;28;20065;-55
2023/09/12 07:42:58;;;;;;;19.80;11.50;;;;;;;;;;4986567;28;20042;-51
2023/09/12 07:45:24;;;;;;;20.40;11.40;;;;;;;;;;4986273;28;20031;-55
2023/09/12 07:47:50;;;;;;;20.75;11.80;;;;;;;;;;4989555;28;20101;-58
2023/09/12 07:50:16;;;;;;;16.60;9.80;;;;;;;;;;4985189;28;20505;-52
2023/09/12 07:52:42;;;;;;;14.57;9.65;;;;;;;;;;4986084;28;20030;-55
2023/09/12 07:55:09;;;;;;;14.65;9.45;;;;;;;;;;4990328;28;20496;-53
2023/09/12 07:57:36;;;;;;;13.70;9.43;;;;;;;;;;4985055;28;20142;-57
2023/09/12 08:00:04;;;;;;;19.48;8.60;;;;;;;;;;4984625;28;20066;-52
2023/09/12 08:02:30;;;;;;;12.88;8.13;;;;;;;;;;4990159;28;20465;-57
2023/09/12 08:04:56;;;;;;;16.85;9.60;;;;;;;;;;4988702;28;20061;-56
2023/09/12 08:07:22;;;;;;;17.63;8.77;;;;;;;;;;4985623;28;20101;-53
2023/09/12 08:09:58;;;;;;;19.52;9.73;;;;;;;;;;4986458;28;20042;-57
2023/09/12 08:12:25;;;;;;;16.75;8.63;;;;;;;;;;4986973;28;20029;-57
2023/09/12 08:14:51;;;;;;;13.15;8.30;;;;;;;;;;4987692;28;20060;-59
2023/09/12 08:17:17;;;;;;;11.73;8.15;;;;;;;;;;4988768;28;20038;-56
2023/09/12 08:19:43;;;;;;;14.38;8.63;;;;;;;;;;4987675;28;20447;-56
2023/09/12 08:22:10;;;;;;;15.90;7.80;;;;;;;;;;4986998;28;20058;-56
2023/09/12 08:24:37;;;;;;;13.35;7.45;;;;;;;;;;4984874;28;20034;-56
2023/09/12 08:27:04;;;;;;;15.88;8.43;;;;;;;;;;4980948;28;20019;-55
2023/09/12 08:29:31;;;;;;;13.27;7.95;;;;;;;;;;4985413;28;20034;-55
2023/09/12 08:31:57;;;;;;;15.82;8.95;;;;;;;;;;4984259;28;20080;-55
2023/09/12 08:34:23;;;;;;;11.38;7.35;;;;;;;;;;4986492;28;20054;-56
2023/09/12 08:36:49;;;;;;;14.30;7.43;;;;;;;;;;4988210;28;20026;-58
2023/09/12 08:39:16;;;;;;;27.08;12.80;;;;;;;;;;4989396;28;20492;-56
2023/09/12 08:41:42;;;;;;;14.75;7.88;;;;;;;;;;4988190;28;20099;-57
2023/09/12 08:44:09;;;;;;;14.20;7.70;;;;;;;;;;4986775;28;20097;-57
2023/09/12 08:46:36;;;;;;;12.73;8.43;;;;;;;;;;4985593;28;20027;-57
2023/09/12 08:49:03;;;;;;;15.75;8.10;;;;;;;;;;4987737;28;20077;-55
2023/09/12 08:51:29;;;;;;;17.92;9.80;;;;;;;;;;4985369;28;20114;-58
2023/09/12 08:53:55;;;;;;;14.45;8.68;;;;;;;;;;4990394;28;20118;-58
2023/09/12 08:56:21;;;;;;;18.77;9.23;;;;;;;;;;4981832;28;20121;-55
2023/09/12 08:58:48;;;;;;;26.00;8.63;;;;;;;;;;4987416;28;20042;-56
2023/09/12 09:01:14;;;;;;;14.82;9.32;;;;;;;;;;4983666;28;20149;-53
2023/09/12 09:03:42;;;;;;;14.88;9.52;;;;;;;;;;4987541;28;20038;-51
2023/09/12 09:06:09;;;;;;;17.08;10.57;;;;;;;;;;4989827;28;20101;-52
2023/09/12 09:08:35;;;;;;;19.48;10.30;;;;;;;;;;4990349;28;20136;-54
2023/09/12 09:11:06;;;;;;;14.25;8.80;;;;;;;;;;4991119;28;20026;-56
2023/09/12 09:13:32;;;;;;;19.15;10.07;;;;;;;;;;4989465;28;20018;-51
2023/09/12 09:16:11;;;;;;;19.98;9.65;;;;;;;;;;4982336;28;20027;-55
2023/09/12 09:18:59;;;;;;;15.68;9.13;;;;;;;;;;4981264;28;20592;-57
2023/09/12 09:21:27;;;;;;;13.15;8.13;;;;;;;;;;4981751;28;20055;-53
2023/09/12 09:23:56;;;;;;;11.68;8.27;;;;;;;;;;4988231;28;20026;-57
2023/09/12 09:26:23;;;;;;;10.68;7.85;;;;;;;;;;4989013;28;20019;-52
2023/09/12 09:29:06;;;;;;;17.20;9.43;;;;;;;;;;4985098;28;20433;-54
2023/09/12 09:31:33;;;;;;;15.07;9.35;;;;;;;;;;4985673;28;20034;-54
2023/09/12 09:33:59;;;;;;;15.98;9.15;;;;;;;;;;4987838;28;20116;-53
2023/09/12 09:36:26;;;;;;;16.23;8.75;;;;;;;;;;4988904;28;20396;-53
2023/09/12 09:38:52;;;;;;;13.35;8.85;;;;;;;;;;4984481;28;20509;-56
2023/09/12 09:41:21;;;;;;;16.05;9.65;;;;;;;;;;4988772;28;20113;-58
2023/09/12 09:43:49;;;;;;;17.55;8.82;;;;;;;;;;4990595;28;20152;-57
2023/09/12 09:46:16;;;;;;;20.27;9.45;;;;;;;;;;4981469;28;20027;-54
2023/09/12 09:48:48;;;;;;;11.18;7.35;;;;;;;;;;4985152;28;20026;-55
2023/09/12 09:51:14;;;;;;;16.58;8.27;;;;;;;;;;4984008;28;20049;-56
2023/09/12 09:53:42;;;;;;;15.18;8.43;;;;;;;;;;4985260;28;20481;-56
2023/09/12 09:56:09;;;;;;;13.07;8.02;;;;;;;;;;4990469;28;20022;-52
2023/09/12 09:58:35;;;;;;;13.60;8.18;;;;;;;;;;4987273;28;20023;-55
2023/09/12 10:01:03;;;;;;;10.73;6.88;;;;;;;;;;4988929;28;20084;-58
2023/09/12 10:03:31;;;;;;;11.18;7.50;;;;;;;;;;4987916;28;20404;-59
2023/09/12 10:05:57;;;;;;;9.25;6.45;;;;;;;;;;4990053;28;20029;-58
2023/09/12 10:08:25;;;;;;;13.88;7.90;;;;;;;;;;4993376;28;20097;-56
2023/09/12 10:10:52;;;;;;;10.70;8.65;;;;;;;;;;4987678;28;20508;-56
2023/09/12 10:13:19;;;;;;;10.85;7.28;;;;;;;;;;4990549;28;20535;-57
2023/09/12 10:15:46;;;;;;;12.85;7.75;;;;;;;;;;4990731;28;20393;-57
2023/09/12 10:18:14;;;;;;;20.92;8.60;;;;;;;;;;4985955;28;20026;-57
2023/09/12 10:20:53;;;;;;;11.32;8.13;;;;;;;;;;4992689;28;20030;-57
2023/09/12 10:23:21;;;;;;;12.73;7.03;;;;;;;;;;4993546;28;20496;-57
2023/09/12 10:25:49;;;;;;;14.68;6.93;;;;;;;;;;4993471;28;20109;-56
2023/09/12 10:28:15;;;;;;;9.25;7.18;;;;;;;;;;4990546;28;20022;-57
2023/09/12 10:30:42;;;;;;;12.45;7.25;;;;;;;;;;4985394;28;20045;-58
2023/09/12 10:33:08;;;;;;;14.65;7.78;;;;;;;;;;4985492;28;20088;-56
2023/09/12 10:35:35;;;;;;;14.98;6.70;;;;;;;;;;4987980;28;20496;-56
2023/09/12 10:38:05;;;;;;;16.45;8.57;;;;;;;;;;4991685;28;20037;-56
2023/09/12 10:40:32;;;;;;;19.35;7.25;;;;;;;;;;4992723;28;20037;-56
2023/09/12 10:43:00;;;;;;;8.90;5.60;;;;;;;;;;4989776;28;20027;-58
2023/09/12 10:45:26;;;;;;;8.68;5.07;;;;;;;;;;4989189;28;20134;-56
2023/09/12 10:47:52;;;;;;;7.63;5.78;;;;;;;;;;4992710;28;20037;-57
2023/09/12 10:50:20;;;;;;;10.40;7.50;;;;;;;;;;4986331;28;20042;-57
2023/09/12 10:52:46;;;;;;;7.80;5.75;;;;;;;;;;4991457;28;20026;-56
2023/09/12 10:55:19;;;;;;;12.63;5.97;;;;;;;;;;4988483;28;20038;-58
2023/09/12 10:58:02;;;;;;;11.68;6.57;;;;;;;;;;4989334;28;20519;-57
2023/09/12 11:00:28;;;;;;;10.70;7.40;;;;;;;;;;4989479;28;20038;-57
2023/09/12 11:02:54;;;;;;;10.90;6.60;;;;;;;;;;4987691;28;20026;-57
2023/09/12 11:05:29;;;;;;;11.27;6.13;;;;;;;;;;4984395;28;20022;-56
2023/09/12 11:07:59;;;;;;;17.10;6.18;;;;;;;;;;4983574;28;20018;-57
2023/09/12 11:10:25;;;;;;;10.85;7.13;;;;;;;;;;4981446;28;20405;-57
2023/09/12 11:12:52;;;;;;;13.00;7.60;;;;;;;;;;4987097;28;20106;-58
2023/09/12 11:15:18;;;;;;;11.00;5.43;;;;;;;;;;4986632;28;20034;-51
2023/09/12 11:17:45;;;;;;;12.32;7.40;;;;;;;;;;4984416;28;20038;-57
2023/09/12 11:20:12;;;;;;;16.08;7.38;;;;;;;;;;4987147;28;20035;-56
2023/09/12 11:22:39;;;;;;;8.93;6.40;;;;;;;;;;4988713;28;20110;-55
2023/09/12 11:25:05;;;;;;;11.13;6.13;;;;;;;;;;4983649;28;20045;-56
2023/09/12 11:28:03;;;;;;;11.88;6.28;;;;;;;;;;4986176;28;20030;-56
2023/09/12 11:30:34;;;;;;;15.95;6.78;;;;;;;;;;4986523;28;20046;-57
2023/09/12 11:33:00;;;;;;;9.18;6.72;;;;;;;;;;4989010;28;20033;-56
2023/09/12 11:35:27;;;;;;;15.25;8.40;;;;;;;;;;4990520;28;20030;-57
2023/09/12 11:37:55;;;;;;;12.30;8.13;;;;;;;;;;4990974;28;20527;-53
2023/09/12 11:40:41;;;;;;;11.88;6.57;;;;;;;;;;4990106;28;20113;-58
2023/09/12 11:43:08;;;;;;;14.75;7.55;;;;;;;;;;4990698;28;20516;-57
2023/09/12 11:45:35;;;;;;;14.10;7.43;;;;;;;;;;4991233;28;20022;-56
2023/09/12 11:48:03;;;;;;;9.90;5.47;;;;;;;;;;4987506;28;20089;-58
2023/09/12 11:50:33;;;;;;;17.02;6.55;;;;;;;;;;4991472;28;20034;-58
2023/09/12 11:53:03;;;;;;;9.50;5.20;;;;;;;;;;4990343;28;20078;-57
2023/09/12 11:55:31;;;;;;;10.23;5.10;;;;;;;;;;4988534;28;20023;-57
2023/09/12 11:57:57;;;;;;;8.18;5.53;;;;;;;;;;4987392;28;20054;-54
2023/09/12 12:00:26;;;;;;;8.75;5.18;;;;;;;;;;4984196;28;20034;-59
2023/09/12 12:02:52;;;;;;;10.45;5.28;;;;;;;;;;4989620;28;20567;-56
2023/09/12 12:05:18;;;;;;;11.70;6.88;;;;;;;;;;4991512;28;20037;-59
2023/09/12 12:07:46;;;;;;;12.15;6.50;;;;;;;;;;4990485;28;20027;-58
2023/09/12 12:10:12;;;;;;;6.82;5.38;;;;;;;;;;4991437;28;20022;-58
2023/09/12 12:12:39;;;;;;;9.30;5.10;;;;;;;;;;4989438;28;20038;-59
2023/09/12 12:15:10;;;;;;;8.13;5.97;;;;;;;;;;4986463;28;20053;-59
2023/09/12 12:17:37;;;;;;;9.02;5.72;;;;;;;;;;4991117;28;20396;-58
2023/09/12 12:20:08;;;;;;;6.75;4.53;;;;;;;;;;4991150;28;20108;-57
2023/09/12 12:22:34;;;;;;;15.15;5.63;;;;;;;;;;4990963;28;20030;-57
2023/09/12 12:25:06;;;;;;;11.35;6.07;;;;;;;;;;4991877;28;20221;-57
2023/09/12 12:27:32;;;;;;;8.38;5.40;;;;;;;;;;4989914;28;20094;-55
2023/09/12 12:29:58;;;;;;;6.90;4.85;;;;;;;;;;4988213;28;20512;-59
2023/09/12 12:32:24;;;;;;;9.05;4.93;;;;;;;;;;4990198;28;20405;-57
2023/09/12 12:34:50;;;;;;;12.50;5.97;;;;;;;;;;4990251;28;20030;-54
2023/09/12 12:37:17;;;;;;;8.93;5.93;;;;;;;;;;4989849;28;20046;-53
2023/09/12 12:39:43;;;;;;;8.75;5.60;;;;;;;;;;4990384;28;20046;-53
2023/09/12 12:42:09;;;;;;;9.43;5.00;;;;;;;;;;4990892;28;20029;-58
2023/09/12 12:44:40;;;;;;;10.70;5.00;;;;;;;;;;4989338;28;20026;-58
2023/09/12 12:47:07;;;;;;;8.98;5.43;;;;;;;;;;4987828;28;20035;-57
2023/09/12 12:49:43;;;;;;;10.25;5.35;;;;;;;;;;4989825;28;20052;-56
2023/09/12 12:52:12;;;;;;;15.18;5.47;;;;;;;;;;4985228;28;20034;-59
2023/09/12 12:54:38;;;;;;;7.93;4.78;;;;;;;;;;4983482;28;20662;-53
2023/09/12 12:57:04;;;;;;;6.65;5.10;;;;;;;;;;4988220;28;20125;-55
2023/09/12 12:59:34;;;;;;;9.18;5.70;;;;;;;;;;4990598;28;20033;-55
2023/09/12 13:02:01;;;;;;;12.68;5.47;;;;;;;;;;4987646;28;20014;-56
2023/09/12 13:04:27;;;;;;;6.85;4.93;;;;;;;;;;4982980;28;20683;-57
2023/09/12 13:06:52;;;;;;;11.32;6.38;;;;;;;;;;4984243;28;20053;-53
2023/09/12 13:09:18;;;;;;;11.48;5.80;;;;;;;;;;4984117;28;20034;-55
2023/09/12 13:11:45;;;;;;;9.95;5.90;;;;;;;;;;4985915;28;20034;-55
2023/09/12 13:14:11;;;;;;;8.43;5.63;;;;;;;;;;4984762;28;20022;-56
2023/09/12 13:16:39;;;;;;;12.48;6.25;;;;;;;;;;4982022;28;20030;-53
2023/09/12 13:19:05;;;;;;;8.00;5.50;;;;;;;;;;4986212;28;20026;-58
2023/09/12 13:21:35;;;;;;;11.65;6.38;;;;;;;;;;4990727;28;20049;-53
2023/09/12 13:24:00;;;;;;;7.93;5.55;;;;;;;;;;4983299;28;20022;-58
2023/09/12 13:26:26;;;;;;;9.73;5.45;;;;;;;;;;4984368;28;20084;-51
2023/09/12 13:28:52;;;;;;;9.13;5.32;;;;;;;;;;4984686;28;20037;-54
2023/09/12 13:31:18;;;;;;;8.73;5.47;;;;;;;;;;4983709;28;20023;-57
2023/09/12 13:33:44;;;;;;;15.57;5.80;;;;;;;;;;4977374;28;20061;-56
2023/09/12 13:36:10;;;;;;;11.32;5.38;;;;;;;;;;4982185;28;20141;-52
2023/09/12 13:38:36;;;;;;;10.05;5.88;;;;;;;;;;4982061;28;20038;-58
2023/09/12 13:41:02;;;;;;;9.57;5.50;;;;;;;;;;4981449;28;20030;-54
2023/09/12 13:43:28;;;;;;;11.82;5.50;;;;;;;;;;4982130;28;20029;-58
2023/09/12 13:45:54;;;;;;;7.90;5.88;;;;;;;;;;4990782;28;20031;-57
2023/09/12 13:48:20;;;;;;;10.10;6.10;;;;;;;;;;4992787;28;20026;-54
2023/09/12 13:50:46;;;;;;;7.80;5.00;;;;;;;;;;4984767;28;20071;-56
2023/09/12 13:53:12;;;;;;;12.63;6.03;;;;;;;;;;4983608;28;20026;-54
2023/09/12 13:55:38;;;;;;;10.40;5.68;;;;;;;;;;4986355;28;20045;-57
2023/09/12 13:58:05;;;;;;;9.88;5.65;;;;;;;;;;4986049;28;20049;-56
2023/09/12 14:00:31;;;;;;;10.70;5.60;;;;;;;;;;4989358;28;20514;-58
2023/09/12 14:02:57;;;;;;;9.20;5.60;;;;;;;;;;4986671;28;20397;-55
2023/09/12 14:05:24;;;;;;;11.07;5.30;;;;;;;;;;4989415;28;20042;-54
2023/09/12 14:07:50;;;;;;;8.10;4.72;;;;;;;;;;4980603;28;20097;-56
2023/09/12 14:10:16;;;;;;;7.22;4.95;;;;;;;;;;4983119;28;20078;-59
2023/09/12 14:12:44;;;;;;;7.28;4.35;;;;;;;;;;4986448;28;20081;-52
2023/09/12 14:15:10;;;;;;;9.05;4.78;;;;;;;;;;4984879;28;20503;-54
2023/09/12 14:17:36;;;;;;;6.72;5.18;;;;;;;;;;4988317;28;20508;-52
2023/09/12 14:20:02;;;;;;;10.57;5.10;;;;;;;;;;4984480;28;20027;-54
2023/09/12 14:22:29;;;;;;;7.88;4.38;;;;;;;;;;4989795;28;20041;-54
2023/09/12 14:24:55;;;;;;;5.63;4.30;;;;;;;;;;4987026;28;20018;-53